NEW MELONES RESERVOIR (NML)

Elevation: 1135' · STANISLAUS R basin · Operator: US Bureau of Reclamation

Provisional data, subject to change.
Query executed Saturday at 2:10:07   clock

Select a sensor type for a plot of data.
Note: Reservoir Flows are daily averages.

Earlier

Date RES ELE    STORAGE    RES CHG    TOC STO    ABV TOC    OUTFLOW    INFLOW    EVAP    FNF    RIV REL    PPT INC    SPILL    DIS PWR   
 FEET   AF   AF   AF   AF   CFS   CFS   CFS   CFS   CFS   INCHES   CFS   CFS  
07/01/2016 883.48 630035 -593 2420000 -1789965 1190 978 87 985 0 0.00 0 1190
07/02/2016 883.18 628419 -1616 2420000 -1791581 1570 849 94 815 0 0.00 0 1570
07/03/2016 882.94 627127 -1292 2420000 -1792873 1559 967 59 872 0 0.00 0 1559
07/04/2016 882.58 625198 -1929 2420000 -1794802 1824 927 76 788 0 0.00 0 1824
07/05/2016 882.33 623858 -1340 2420000 -1796142 1519 914 71 741 0 0.00 0 1519
07/06/2016 881.94 621769 -2089 2420000 -1798231 1842 860 71 664 0 0.00 0 1842
07/07/2016 881.81 621076 -693 2420000 -1798924 1149 874 74 629 0 0.00 0 1149
07/08/2016 881.56 619743 -1333 2420000 -1800257 1480 905 97 679 0 0.00 0 1480
07/09/2016 881.27 618197 -1546 2420000 -1801803 1571 868 76 604 0 0.00 0 1571
07/10/2016 880.94 616439 -1758 2420000 -1803561 1656 837 67 560 0 0.00 0 1656
07/11/2016 880.73 615325 -1114 2420000 -1804675 1329 829 62 582 0 0.00 0 1329
07/12/2016 880.46 613893 -1432 2420000 -1806107 1458 806 70 519 0 0.00 0 1458
07/13/2016 880.19 612462 -1431 2420000 -1807538 1478 822 65 517 0 0.00 0 1478
07/14/2016 879.99 611401 -1061 2420000 -1808599 1258 800 77 513 0 0.00 0 1258
07/15/2016 879.73 610030 -1371 2420000 -1809970 1391 777 77 465 0 0.00 0 1391
07/16/2016 879.52 608922 -1108 2420000 -1811078 1214 744 89 1930 0 0.00 0 1214
07/17/2016 879.23 607393 -1529 2420000 -1812607 1420 722 73 -1135 0 0.00 0 1420
07/18/2016 878.82 605236 -2157 2420000 -1814764 1862 850 75 510 0 0.00 0 1862
07/19/2016 878.53 603714 -1522 2420000 -1816286 1441 747 73 397 0 0.00 0 1441
07/20/2016 878.28 602402 -1312 2420000 -1817598 1389 784 56 433 0 0.00 0 1389
07/21/2016 877.99 600881 -1521 2420000 -1819119 1429 730 68 365 0 0.00 0 1429
07/22/2016 877.54 598533 -2348 2420000 -1821467 1930 815 69 456 0 0.00 0 1930
07/23/2016 877.26 597072 -1461 2420000 -1822928 1470 809 76 424 0 0.00 0 1470
07/24/2016 876.82 594781 -2291 2420000 -1825219 1854 780 81 406 0 0.00 0 1854
07/25/2016 876.54 593328 -1453 2420000 -1826672 1488 841 86 444 0 0.00 0 1488
07/26/2016 876.36 592393 -935 2420000 -1827607 1324 929 76 532 0 0.00 0 1324
07/27/2016 876.04 590733 -1660 2420000 -1829267 1605 855 87 455 0 0.00 0 1605
07/28/2016 875.74 589183 -1550 2420000 -1830817 1528 827 80 427 0 0.00 0 1528
07/29/2016 -- -- -- 2420000 -- -- -- -- -- -- -- -- --
07/30/2016 -- -- -- -- -- -- -- -- -- -- -- -- --

Later | Latest

Warning! This data is preliminary and subject to revision.

Show NML Map | Plot NML Data | 1 Month NML Data | Real-Time NML Data | NML Info